Time;durP1;ratioP1;P1;durP2;ratioP2;P2;SDS_P1;SDS_P2;PMS_P1;PMS_P2;Temp;Humidity;BMP_temperature;BMP_pressure;BME280_temperature;BME280_humidity;BME280_pressure;Samples;Min_cycle;Max_cycle;Signal;HPM_P1;HPM_P2
2023/05/28 00:01:55;;;;;;;0.10;0.10;;;13.30;99.90;;;;;;4996823;28;20061;-65
2023/05/28 00:04:21;;;;;;;1.35;0.60;;;13.20;99.90;;;;;;5008422;28;20046;-65
2023/05/28 00:06:50;;;;;;;0.57;0.57;;;13.20;99.90;;;;;;5006501;28;20034;-65
2023/05/28 00:09:15;;;;;;;0.13;0.13;;;13.30;99.90;;;;;;4999760;28;20408;-65
2023/05/28 00:11:42;;;;;;;1.48;1.35;;;13.30;99.90;;;;;;5006092;28;22624;-65
2023/05/28 00:14:08;;;;;;;0.30;0.30;;;13.30;99.90;;;;;;5002851;28;20097;-65
2023/05/28 00:16:35;;;;;;;1.00;0.50;;;13.30;99.90;;;;;;5007379;28;20437;-65
2023/05/28 00:19:02;;;;;;;1.17;0.30;;;13.30;99.90;;;;;;4999493;28;20056;-65
2023/05/28 00:21:28;;;;;;;0.75;0.75;;;13.30;99.90;;;;;;5040369;28;20069;-65
2023/05/28 00:23:53;;;;;;;1.35;0.70;;;13.20;99.90;;;;;;5024346;28;20077;-65
2023/05/28 00:26:19;;;;;;;0.35;0.35;;;13.20;99.90;;;;;;5003571;28;20038;-65
2023/05/28 00:28:44;;;;;;;0.50;0.43;;;13.30;99.90;;;;;;5004613;28;20057;-65
2023/05/28 00:31:11;;;;;;;29.92;1.70;;;13.30;99.90;;;;;;5007563;28;20413;-65
2023/05/28 00:33:37;;;;;;;1.27;1.17;;;13.20;99.90;;;;;;5007665;28;20045;-65
2023/05/28 00:36:03;;;;;;;1.27;1.17;;;13.20;99.90;;;;;;5005675;28;20852;-65
2023/05/28 00:38:28;;;;;;;0.40;0.40;;;13.20;99.90;;;;;;5004753;28;20045;-65
2023/05/28 00:40:57;;;;;;;0.38;0.38;;;13.10;99.90;;;;;;5000837;28;20041;-65
2023/05/28 00:43:22;;;;;;;0.50;0.50;;;13.10;99.90;;;;;;5006769;28;20033;-65
2023/05/28 00:45:50;;;;;;;0.30;0.30;;;13.10;99.90;;;;;;5009963;28;20038;-65
2023/05/28 00:48:16;;;;;;;2.00;1.45;;;13.00;99.90;;;;;;4999317;28;20125;-65
2023/05/28 00:50:43;;;;;;;0.00;0.00;;;12.90;99.90;;;;;;5038321;28;20501;-65
2023/05/28 00:53:10;;;;;;;0.30;0.30;;;12.90;99.90;;;;;;5007601;28;20096;-65
2023/05/28 00:55:36;;;;;;;0.70;0.70;;;12.90;99.90;;;;;;5007798;28;20068;-65
2023/05/28 00:58:05;;;;;;;0.30;0.30;;;12.90;99.90;;;;;;4995398;28;20046;-65
2023/05/28 01:00:33;;;;;;;0.80;0.75;;;12.90;99.90;;;;;;5005798;28;20046;-65
2023/05/28 01:02:58;;;;;;;1.85;1.65;;;12.90;99.90;;;;;;4999153;28;20118;-65
2023/05/28 01:05:24;;;;;;;0.22;0.22;;;13.00;99.90;;;;;;5007823;28;20551;-65
2023/05/28 01:07:50;;;;;;;0.10;0.10;;;12.90;99.90;;;;;;5004027;28;20044;-65
2023/05/28 01:10:16;;;;;;;1.48;0.50;;;12.90;99.90;;;;;;5002542;28;20121;-65
2023/05/28 01:12:43;;;;;;;0.40;0.40;;;12.90;99.90;;;;;;5023434;28;20133;-65
2023/05/28 01:15:09;;;;;;;2.63;0.90;;;12.90;99.90;;;;;;5002317;28;20078;-65
2023/05/28 01:17:38;;;;;;;0.40;0.40;;;12.90;99.90;;;;;;5004978;28;20463;-65
2023/05/28 01:20:13;;;;;;;1.08;0.73;;;12.90;99.90;;;;;;5021744;28;20059;-65
2023/05/28 01:22:40;;;;;;;0.00;0.00;;;12.90;99.90;;;;;;5001854;28;20057;-65
2023/05/28 01:25:12;;;;;;;0.65;0.60;;;12.80;99.90;;;;;;5000988;28;20060;-65
2023/05/28 01:27:41;;;;;;;1.30;0.70;;;12.80;99.90;;;;;;5004738;28;20046;-65
2023/05/28 01:30:11;;;;;;;0.30;0.30;;;12.90;99.90;;;;;;5006906;28;20058;-65
2023/05/28 01:32:37;;;;;;;1.50;0.75;;;12.80;99.90;;;;;;5004485;28;20048;-65
2023/05/28 01:35:08;;;;;;;0.35;0.35;;;12.90;99.90;;;;;;5003608;28;20038;-65
2023/05/28 01:37:39;;;;;;;0.65;0.65;;;12.90;99.90;;;;;;5003335;28;20092;-65
2023/05/28 01:40:08;;;;;;;1.88;0.85;;;12.80;99.90;;;;;;5001575;28;20140;-65
2023/05/28 01:42:34;;;;;;;0.13;0.13;;;12.80;99.90;;;;;;5006009;28;20042;-65
2023/05/28 01:45:01;;;;;;;0.82;0.77;;;12.80;99.90;;;;;;5001825;28;21696;-65
2023/05/28 01:47:28;;;;;;;11.02;1.92;;;12.90;99.90;;;;;;5002511;28;20553;-65
2023/05/28 01:49:53;;;;;;;1.63;1.52;;;12.80;99.90;;;;;;5003573;28;20132;-65
2023/05/28 01:52:19;;;;;;;0.20;0.20;;;12.90;99.90;;;;;;5005942;28;20086;-65
2023/05/28 01:54:45;;;;;;;1.50;1.38;;;12.80;99.90;;;;;;5004669;28;20463;-65
2023/05/28 01:57:11;;;;;;;0.50;0.32;;;12.80;99.90;;;;;;5003992;28;20050;-65
2023/05/28 01:59:37;;;;;;;0.00;0.00;;;12.80;99.90;;;;;;5002450;28;20536;-64
2023/05/28 02:02:03;;;;;;;0.30;0.30;;;12.80;99.90;;;;;;4994266;28;20042;-65
2023/05/28 02:04:29;;;;;;;0.82;0.57;;;12.80;99.90;;;;;;5006024;28;20053;-65
2023/05/28 02:06:55;;;;;;;2.10;0.75;;;12.80;99.90;;;;;;5003784;28;20042;-64
2023/05/28 02:09:21;;;;;;;0.00;0.00;;;12.80;99.90;;;;;;5002659;28;20053;-65
2023/05/28 02:11:46;;;;;;;1.27;0.65;;;12.80;99.90;;;;;;5007998;28;20037;-64
2023/05/28 02:14:14;;;;;;;0.10;0.10;;;12.70;99.90;;;;;;5004711;28;20104;-65
2023/05/28 02:16:49;;;;;;;0.68;0.68;;;12.70;99.90;;;;;;4999735;28;20046;-65
2023/05/28 02:19:16;;;;;;;0.00;0.00;;;12.70;99.90;;;;;;5002408;28;20034;-65
2023/05/28 02:21:41;;;;;;;0.40;0.38;;;12.70;99.90;;;;;;5004097;28;20046;-65
2023/05/28 02:24:07;;;;;;;0.10;0.10;;;12.70;99.90;;;;;;5003309;28;20054;-65
2023/05/28 02:26:33;;;;;;;0.85;0.82;;;12.70;99.90;;;;;;5001843;28;20034;-65
2023/05/28 02:28:58;;;;;;;0.95;0.88;;;12.80;99.90;;;;;;4999535;28;20050;-65
2023/05/28 02:31:24;;;;;;;0.30;0.30;;;12.70;99.90;;;;;;5001000;28;20053;-65
2023/05/28 02:33:49;;;;;;;0.20;0.20;;;12.70;99.90;;;;;;5030819;28;20077;-65
2023/05/28 02:36:15;;;;;;;1.38;1.27;;;12.70;99.90;;;;;;5003595;28;20060;-65
2023/05/28 02:38:42;;;;;;;0.30;0.30;;;12.70;99.90;;;;;;4998257;28;20042;-64
2023/05/28 02:41:08;;;;;;;0.45;0.40;;;12.70;99.90;;;;;;5034002;28;20086;-65
2023/05/28 02:43:33;;;;;;;0.35;0.35;;;12.60;99.90;;;;;;5005716;28;20128;-65
2023/05/28 02:45:59;;;;;;;1.65;1.20;;;12.70;99.90;;;;;;4999569;28;20136;-64
2023/05/28 02:48:25;;;;;;;0.50;0.50;;;12.60;99.90;;;;;;5005853;28;20186;-65
2023/05/28 02:50:51;;;;;;;0.20;0.20;;;12.60;99.90;;;;;;5008002;28;20129;-65
2023/05/28 02:53:20;;;;;;;0.00;0.00;;;12.60;99.90;;;;;;4996410;28;20133;-65
2023/05/28 02:55:46;;;;;;;1.52;1.42;;;12.60;99.90;;;;;;5013665;28;20173;-65
2023/05/28 02:58:12;;;;;;;0.63;0.63;;;12.50;99.90;;;;;;5004738;28;20520;-65
2023/05/28 03:00:38;;;;;;;0.25;0.22;;;12.50;99.90;;;;;;5002358;28;20042;-65
2023/05/28 03:03:04;;;;;;;0.00;0.00;;;12.50;99.90;;;;;;5008788;28;20045;-65
2023/05/28 03:05:31;;;;;;;0.00;0.00;;;12.50;99.90;;;;;;5006653;28;20038;-65
2023/05/28 03:07:57;;;;;;;2.10;0.75;;;12.50;99.90;;;;;;5033271;28;20046;-65
2023/05/28 03:10:23;;;;;;;2.53;1.17;;;12.50;99.90;;;;;;5002637;28;20576;-65
2023/05/28 03:12:48;;;;;;;0.17;0.17;;;12.40;99.90;;;;;;5007846;28;20124;-65
2023/05/28 03:15:14;;;;;;;0.35;0.20;;;12.40;99.90;;;;;;5007452;28;20428;-65
2023/05/28 03:17:40;;;;;;;0.25;0.25;;;12.40;99.90;;;;;;4995082;28;20050;-65
2023/05/28 03:20:10;;;;;;;0.45;0.35;;;12.30;99.90;;;;;;5003185;28;20104;-65
2023/05/28 03:22:36;;;;;;;0.15;0.15;;;12.40;99.90;;;;;;5005836;28;20076;-65
2023/05/28 03:25:08;;;;;;;0.20;0.20;;;12.40;99.90;;;;;;4997875;28;20046;-65
2023/05/28 03:27:34;;;;;;;0.93;0.93;;;12.30;99.90;;;;;;4999008;28;20084;-64
2023/05/28 03:29:59;;;;;;;0.03;0.03;;;12.30;99.90;;;;;;5001780;28;20053;-64
2023/05/28 03:32:25;;;;;;;0.25;0.25;;;12.30;99.90;;;;;;5004940;28;20045;-64
2023/05/28 03:34:50;;;;;;;0.25;0.25;;;12.20;99.90;;;;;;5003059;28;20153;-65
2023/05/28 03:37:16;;;;;;;0.65;0.65;;;12.20;99.90;;;;;;5000860;28;20065;-65
2023/05/28 03:39:41;;;;;;;0.43;0.43;;;12.20;99.90;;;;;;5004864;28;20038;-65
2023/05/28 03:42:07;;;;;;;3.83;0.68;;;12.20;99.90;;;;;;5003339;28;20041;-65
2023/05/28 03:44:34;;;;;;;2.40;1.52;;;12.20;99.90;;;;;;5000871;28;20116;-65
2023/05/28 03:47:00;;;;;;;0.20;0.20;;;12.30;99.90;;;;;;5001280;28;20049;-64
2023/05/28 03:49:25;;;;;;;2.00;1.15;;;12.30;99.90;;;;;;5009296;28;20772;-65
2023/05/28 03:51:51;;;;;;;0.20;0.20;;;12.30;99.90;;;;;;5004351;28;20037;-65
2023/05/28 03:54:17;;;;;;;1.45;0.98;;;12.30;99.90;;;;;;5000914;28;20045;-64
2023/05/28 03:56:43;;;;;;;0.47;0.47;;;12.30;99.90;;;;;;4999668;28;20074;-65
2023/05/28 03:59:08;;;;;;;0.00;0.00;;;12.30;99.90;;;;;;5000602;28;20137;-65
2023/05/28 04:01:35;;;;;;;1.70;1.58;;;12.30;99.90;;;;;;5004642;28;20122;-64
2023/05/28 04:04:01;;;;;;;0.10;0.10;;;12.30;99.90;;;;;;5000547;28;20102;-65
2023/05/28 04:06:27;;;;;;;0.35;0.35;;;12.30;99.90;;;;;;5007942;28;20065;-65
2023/05/28 04:08:52;;;;;;;0.13;0.13;;;12.20;99.90;;;;;;5007801;28;20846;-65
2023/05/28 04:11:18;;;;;;;0.43;0.43;;;12.30;99.90;;;;;;5003295;28;20034;-65
2023/05/28 04:13:44;;;;;;;0.00;0.00;;;12.30;99.90;;;;;;5021776;28;20050;-64
2023/05/28 04:16:09;;;;;;;0.30;0.30;;;12.30;99.90;;;;;;4999057;28;20050;-65
2023/05/28 04:18:35;;;;;;;0.95;0.47;;;12.20;99.90;;;;;;5001861;28;20038;-64
2023/05/28 04:21:00;;;;;;;0.20;0.20;;;12.30;99.90;;;;;;5005541;28;20439;-64
2023/05/28 04:23:26;;;;;;;0.45;0.45;;;12.30;99.90;;;;;;5026087;28;20381;-64
2023/05/28 04:25:53;;;;;;;4.07;1.70;;;12.30;99.90;;;;;;5020532;28;20117;-65
2023/05/28 04:28:19;;;;;;;0.50;0.50;;;12.30;99.90;;;;;;4999924;28;20050;-65
2023/05/28 04:30:45;;;;;;;0.93;0.40;;;12.30;99.90;;;;;;5004942;28;20049;-65
2023/05/28 04:33:10;;;;;;;0.75;0.75;;;12.30;99.90;;;;;;4996117;28;20096;-65
2023/05/28 04:35:36;;;;;;;0.40;0.40;;;12.30;99.90;;;;;;4999385;28;20046;-65
2023/05/28 04:38:01;;;;;;;3.67;0.60;;;12.40;99.90;;;;;;5009242;28;20096;-64
2023/05/28 04:40:27;;;;;;;0.15;0.15;;;12.30;99.90;;;;;;5009384;28;20046;-65
2023/05/28 04:42:53;;;;;;;0.77;0.55;;;12.30;99.90;;;;;;5003465;28;20040;-65
2023/05/28 04:45:19;;;;;;;0.25;0.25;;;12.40;99.90;;;;;;5001614;28;20034;-65
2023/05/28 04:47:45;;;;;;;1.25;1.17;;;12.40;99.90;;;;;;5007639;28;20449;-65
2023/05/28 04:50:11;;;;;;;0.68;0.68;;;12.40;99.90;;;;;;4995097;28;20117;-65
2023/05/28 04:52:37;;;;;;;0.73;0.73;;;12.50;99.90;;;;;;5009589;28;20042;-65
2023/05/28 04:55:06;;;;;;;0.10;0.10;;;12.50;99.90;;;;;;5004980;28;20046;-65
2023/05/28 04:57:32;;;;;;;4.25;2.38;;;12.60;99.90;;;;;;5006499;28;20053;-65
2023/05/28 04:59:58;;;;;;;0.10;0.10;;;12.60;99.90;;;;;;5004570;28;20563;-65
2023/05/28 05:02:24;;;;;;;2.70;2.47;;;12.70;99.90;;;;;;5006829;28;20053;-64
2023/05/28 05:04:49;;;;;;;1.30;0.52;;;12.70;99.90;;;;;;5009585;28;20038;-65
2023/05/28 05:07:16;;;;;;;0.57;0.57;;;12.80;99.90;;;;;;4994670;28;20504;-65
2023/05/28 05:09:42;;;;;;;0.63;0.63;;;12.80;99.90;;;;;;4998521;28;20432;-65
2023/05/28 05:12:08;;;;;;;0.28;0.28;;;12.90;99.90;;;;;;5001481;28;20046;-65
2023/05/28 05:14:34;;;;;;;1.63;0.80;;;12.90;99.90;;;;;;5006578;28;20470;-65
2023/05/28 05:17:00;;;;;;;0.30;0.30;;;12.90;99.90;;;;;;5006125;28;20049;-65
2023/05/28 05:19:26;;;;;;;0.93;0.57;;;13.00;99.90;;;;;;5002741;28;20525;-65
2023/05/28 05:21:52;;;;;;;2.20;1.02;;;13.00;99.90;;;;;;5004916;28;20065;-65
2023/05/28 05:24:18;;;;;;;0.10;0.10;;;13.10;99.90;;;;;;5001481;28;20083;-65
2023/05/28 05:26:43;;;;;;;0.17;0.17;;;13.10;99.90;;;;;;4999588;28;20058;-65
2023/05/28 05:29:09;;;;;;;0.10;0.10;;;13.10;99.90;;;;;;4994156;28;20053;-65
2023/05/28 05:31:38;;;;;;;3.80;1.35;;;13.20;99.90;;;;;;5008271;28;20124;-65
2023/05/28 05:34:04;;;;;;;7.22;2.55;;;13.20;99.90;;;;;;5009168;28;20130;-65
2023/05/28 05:36:30;;;;;;;0.25;0.25;;;13.30;99.90;;;;;;4997772;28;20035;-65
2023/05/28 05:38:56;;;;;;;0.30;0.30;;;13.30;99.90;;;;;;5000264;28;20121;-65
2023/05/28 05:41:21;;;;;;;0.05;0.05;;;13.30;99.90;;;;;;5006208;28;20533;-65
2023/05/28 05:43:47;;;;;;;0.13;0.13;;;13.40;99.90;;;;;;5010128;28;20068;-65
2023/05/28 05:46:12;;;;;;;0.60;0.45;;;13.40;99.90;;;;;;5004534;28;20422;-65
2023/05/28 05:48:38;;;;;;;0.10;0.10;;;13.40;99.90;;;;;;5018563;28;20036;-65
2023/05/28 05:51:04;;;;;;;0.93;0.90;;;13.40;99.90;;;;;;5011694;28;20042;-65
2023/05/28 05:53:29;;;;;;;2.35;1.23;;;13.50;99.90;;;;;;5004050;28;20042;-65
2023/05/28 05:55:55;;;;;;;0.05;0.05;;;13.50;99.90;;;;;;5000871;28;20049;-65
2023/05/28 05:58:21;;;;;;;0.82;0.82;;;13.60;99.90;;;;;;5000833;28;20038;-65
2023/05/28 06:00:47;;;;;;;0.15;0.15;;;13.60;99.90;;;;;;5000211;28;20113;-65
2023/05/28 06:03:14;;;;;;;0.47;0.45;;;13.70;99.90;;;;;;5004565;28;20226;-65
2023/05/28 06:05:40;;;;;;;4.90;1.65;;;13.70;99.90;;;;;;5002801;28;20050;-65
2023/05/28 06:08:06;;;;;;;0.00;0.00;;;13.80;99.90;;;;;;5001716;28;20091;-65
2023/05/28 06:10:31;;;;;;;0.10;0.10;;;13.80;99.90;;;;;;5003685;28;20121;-65
2023/05/28 06:13:00;;;;;;;0.10;0.10;;;13.80;99.90;;;;;;5005903;28;20477;-65
2023/05/28 06:15:27;;;;;;;0.03;0.03;;;13.90;99.90;;;;;;4996850;28;20066;-65
2023/05/28 06:17:53;;;;;;;0.38;0.38;;;13.90;99.90;;;;;;5003568;28;20057;-65
2023/05/28 06:20:19;;;;;;;0.10;0.10;;;13.90;99.90;;;;;;4998917;28;20049;-65
2023/05/28 06:22:45;;;;;;;0.70;0.70;;;14.00;99.90;;;;;;5004128;28;20042;-65
2023/05/28 06:25:11;;;;;;;0.20;0.20;;;14.10;99.90;;;;;;5008857;28;20490;-65
2023/05/28 06:27:37;;;;;;;0.77;0.47;;;14.10;99.90;;;;;;5001353;28;20034;-66
2023/05/28 06:30:04;;;;;;;0.17;0.17;;;14.10;99.90;;;;;;5001134;28;20045;-64
2023/05/28 06:32:30;;;;;;;0.75;0.63;;;14.20;99.90;;;;;;5030289;28;20052;-65
2023/05/28 06:34:56;;;;;;;9.00;0.40;;;14.20;99.90;;;;;;5001950;28;20038;-65
2023/05/28 06:37:22;;;;;;;0.10;0.10;;;14.30;99.90;;;;;;5009790;28;20046;-65
2023/05/28 06:39:47;;;;;;;0.10;0.10;;;14.40;99.90;;;;;;5004575;28;20038;-65
2023/05/28 06:42:13;;;;;;;0.10;0.10;;;14.40;99.90;;;;;;5004825;28;20117;-65
2023/05/28 06:44:38;;;;;;;0.20;0.20;;;14.40;99.90;;;;;;4998649;28;20045;-65
2023/05/28 06:47:04;;;;;;;0.13;0.13;;;14.50;99.90;;;;;;5016725;28;20504;-65
2023/05/28 06:49:30;;;;;;;1.10;0.75;;;14.50;99.90;;;;;;5005407;28;20029;-64
2023/05/28 06:51:55;;;;;;;3.20;0.90;;;14.60;99.90;;;;;;5001290;28;20796;-65
2023/05/28 06:54:21;;;;;;;0.00;0.00;;;14.60;99.90;;;;;;5014689;28;20425;-65
2023/05/28 06:56:47;;;;;;;0.10;0.10;;;14.70;99.90;;;;;;4995406;28;20061;-65
2023/05/28 06:59:12;;;;;;;0.00;0.00;;;14.70;99.90;;;;;;5010023;28;20049;-65
2023/05/28 07:01:38;;;;;;;0.10;0.10;;;14.80;99.90;;;;;;4997773;28;20490;-65
2023/05/28 07:04:03;;;;;;;0.20;0.20;;;14.90;99.90;;;;;;5002178;28;20050;-65
2023/05/28 07:06:30;;;;;;;0.40;0.40;;;14.90;99.90;;;;;;4993822;28;20035;-64
2023/05/28 07:08:55;;;;;;;0.00;0.00;;;15.00;99.90;;;;;;5009596;28;20457;-65
2023/05/28 07:11:21;;;;;;;0.10;0.10;;;15.00;99.90;;;;;;5009095;28;20046;-65
2023/05/28 07:13:47;;;;;;;0.57;0.20;;;15.00;99.90;;;;;;4999125;28;20061;-65
2023/05/28 07:16:13;;;;;;;0.22;0.22;;;15.10;99.90;;;;;;5039969;28;20041;-64
2023/05/28 07:18:39;;;;;;;0.40;0.40;;;15.10;99.90;;;;;;5003473;28;20092;-64
2023/05/28 07:21:07;;;;;;;0.65;0.63;;;15.20;99.90;;;;;;5008158;28;20050;-64
2023/05/28 07:23:33;;;;;;;0.10;0.10;;;15.20;99.90;;;;;;5012304;28;20050;-64
2023/05/28 07:25:59;;;;;;;0.03;0.03;;;15.30;99.90;;;;;;5000783;28;21014;-64
2023/05/28 07:28:25;;;;;;;4.85;1.75;;;15.30;99.90;;;;;;5002265;28;20085;-64
2023/05/28 07:30:51;;;;;;;0.03;0.03;;;15.30;99.90;;;;;;5022620;28;20058;-65
2023/05/28 07:33:16;;;;;;;0.00;0.00;;;15.40;99.90;;;;;;5006059;28;20050;-65
2023/05/28 07:35:42;;;;;;;0.20;0.20;;;15.40;99.90;;;;;;5006853;28;20042;-65
2023/05/28 07:38:10;;;;;;;0.52;0.52;;;15.40;99.90;;;;;;5002275;28;20050;-65
2023/05/28 07:40:36;;;;;;;0.35;0.35;;;15.50;99.90;;;;;;5006904;28;20107;-65
2023/05/28 07:43:02;;;;;;;0.30;0.30;;;15.60;99.90;;;;;;5001873;28;20042;-65
2023/05/28 07:45:27;;;;;;;0.40;0.40;;;15.60;99.90;;;;;;5007818;28;20054;-64
2023/05/28 07:47:53;;;;;;;0.10;0.10;;;15.70;99.90;;;;;;5014265;28;20041;-64
2023/05/28 07:50:18;;;;;;;0.00;0.00;;;15.80;99.90;;;;;;5007800;28;20064;-64
2023/05/28 07:52:44;;;;;;;2.72;1.00;;;15.80;99.90;;;;;;5004927;28;20038;-64
2023/05/28 07:55:10;;;;;;;0.25;0.25;;;15.90;99.90;;;;;;5007434;28;20038;-65
2023/05/28 07:57:36;;;;;;;0.10;0.10;;;15.90;99.90;;;;;;5008285;28;20042;-64
2023/05/28 08:00:06;;;;;;;0.00;0.00;;;15.90;99.90;;;;;;5004255;28;20573;-64
2023/05/28 08:02:32;;;;;;;0.25;0.25;;;16.00;99.90;;;;;;5036699;28;20073;-65
2023/05/28 08:04:57;;;;;;;0.00;0.00;;;16.10;99.90;;;;;;5010059;28;20088;-64
2023/05/28 08:07:23;;;;;;;0.20;0.20;;;16.10;99.90;;;;;;4998807;28;20097;-64
2023/05/28 08:09:48;;;;;;;0.28;0.28;;;16.20;99.90;;;;;;5008975;28;20065;-65
2023/05/28 08:12:14;;;;;;;1.27;0.45;;;16.30;99.90;;;;;;5004583;28;20038;-65
2023/05/28 08:14:40;;;;;;;2.40;1.42;;;16.30;99.90;;;;;;4998964;28;20156;-64
2023/05/28 08:17:05;;;;;;;0.10;0.10;;;16.40;99.90;;;;;;5002389;28;20398;-65
2023/05/28 08:19:31;;;;;;;0.55;0.32;;;16.50;99.90;;;;;;5010317;28;20038;-64
2023/05/28 08:21:57;;;;;;;0.38;0.38;;;16.50;99.90;;;;;;5005912;28;20120;-65
2023/05/28 08:24:23;;;;;;;0.52;0.15;;;16.50;99.90;;;;;;5002499;28;20042;-64
2023/05/28 08:26:48;;;;;;;0.35;0.35;;;16.60;99.90;;;;;;5038861;28;20084;-64
2023/05/28 08:29:14;;;;;;;0.10;0.10;;;16.70;99.90;;;;;;4999482;28;20061;-64
2023/05/28 08:31:40;;;;;;;0.10;0.10;;;16.80;99.90;;;;;;5003070;28;20397;-65
2023/05/28 08:34:05;;;;;;;0.17;0.17;;;16.80;99.90;;;;;;5001556;28;20053;-65
2023/05/28 08:36:31;;;;;;;2.65;1.27;;;16.80;99.90;;;;;;5006618;28;20045;-64
2023/05/28 08:38:57;;;;;;;0.17;0.17;;;16.90;99.90;;;;;;5011533;28;20524;-65
2023/05/28 08:41:25;;;;;;;0.10;0.10;;;16.90;99.90;;;;;;5001272;28;20338;-64
2023/05/28 08:43:50;;;;;;;1.00;0.30;;;16.90;99.90;;;;;;5021960;28;20054;-64
2023/05/28 08:46:17;;;;;;;0.08;0.08;;;17.00;99.90;;;;;;5002114;28;20053;-65
2023/05/28 08:48:43;;;;;;;0.17;0.17;;;17.00;99.90;;;;;;5026431;28;20103;-65
2023/05/28 08:51:09;;;;;;;0.00;0.00;;;17.00;99.90;;;;;;5011781;28;20133;-65
2023/05/28 08:53:45;;;;;;;0.20;0.20;;;17.10;99.90;;;;;;5005570;28;20054;-65
2023/05/28 08:56:12;;;;;;;0.38;0.38;;;17.20;99.90;;;;;;4998431;28;20046;-65
2023/05/28 08:58:38;;;;;;;1.35;0.52;;;17.30;99.90;;;;;;5007005;28;20046;-65
2023/05/28 09:01:08;;;;;;;0.28;0.28;;;17.30;99.90;;;;;;5010740;28;20392;-65
2023/05/28 09:03:35;;;;;;;0.10;0.10;;;17.40;99.90;;;;;;4997181;28;20137;-65
2023/05/28 09:06:01;;;;;;;0.00;0.00;;;17.50;99.90;;;;;;5006058;28;20054;-65
2023/05/28 09:08:27;;;;;;;0.35;0.35;;;17.50;99.90;;;;;;4998968;28;20562;-65
2023/05/28 09:10:56;;;;;;;0.28;0.22;;;17.60;99.90;;;;;;5001579;28;20188;-65
2023/05/28 09:13:21;;;;;;;0.35;0.35;;;17.70;99.90;;;;;;5010792;28;20046;-65
2023/05/28 09:15:51;;;;;;;0.10;0.10;;;17.80;99.90;;;;;;4999830;28;20084;-65
2023/05/28 09:18:20;;;;;;;0.30;0.30;;;17.80;99.90;;;;;;5001145;28;20050;-65
2023/05/28 09:20:47;;;;;;;0.20;0.20;;;17.90;99.90;;;;;;5003012;28;20375;-65
2023/05/28 09:23:16;;;;;;;2.13;1.02;;;18.00;99.90;;;;;;5005125;28;20046;-65
2023/05/28 09:25:44;;;;;;;0.52;0.52;;;18.10;99.90;;;;;;5012853;28;20053;-65
2023/05/28 09:28:13;;;;;;;0.10;0.10;;;18.20;99.90;;;;;;5009288;28;20084;-65
2023/05/28 09:30:39;;;;;;;0.55;0.55;;;18.30;99.90;;;;;;5000391;28;20046;-65
2023/05/28 09:33:07;;;;;;;0.00;0.00;;;18.40;99.90;;;;;;5007041;28;20193;-65
2023/05/28 09:35:33;;;;;;;0.30;0.30;;;18.40;99.90;;;;;;5000002;28;20120;-64
2023/05/28 09:38:08;;;;;;;0.85;0.75;;;18.50;99.90;;;;;;5002145;28;20104;-65
2023/05/28 09:40:43;;;;;;;0.10;0.10;;;18.80;99.90;;;;;;4993773;28;20390;-65
2023/05/28 09:43:10;;;;;;;1.55;0.90;;;19.10;99.90;;;;;;5006955;28;20050;-65
2023/05/28 09:45:36;;;;;;;0.10;0.10;;;19.60;99.90;;;;;;5005723;28;20039;-65
2023/05/28 09:48:02;;;;;;;0.30;0.30;;;20.00;99.90;;;;;;5014039;28;20050;-65
2023/05/28 09:50:28;;;;;;;0.63;0.55;;;20.30;99.90;;;;;;5007819;28;20877;-64
2023/05/28 09:52:58;;;;;;;0.47;0.47;;;20.50;99.90;;;;;;5001355;28;20100;-64
2023/05/28 09:55:25;;;;;;;0.00;0.00;;;20.70;99.90;;;;;;5042064;28;20050;-64
2023/05/28 09:58:02;;;;;;;0.00;0.00;;;21.00;99.50;;;;;;5009113;28;20053;-65
2023/05/28 10:00:42;;;;;;;0.38;0.38;;;21.10;99.30;;;;;;4999446;28;20050;-65
2023/05/28 10:03:19;;;;;;;0.52;0.52;;;21.10;97.60;;;;;;4998137;28;20054;-65
2023/05/28 10:05:51;;;;;;;5.18;2.20;;;21.20;98.70;;;;;;5000944;28;20061;-64
2023/05/28 10:08:20;;;;;;;0.65;0.55;;;21.30;98.60;;;;;;5004999;28;20049;-65
2023/05/28 10:10:51;;;;;;;0.63;0.50;;;21.30;98.20;;;;;;5002246;28;20096;-64
2023/05/28 10:13:16;;;;;;;1.10;0.15;;;21.40;98.70;;;;;;4995878;28;20037;-65
2023/05/28 10:15:43;;;;;;;0.05;0.05;;;21.50;97.80;;;;;;5003089;28;20473;-64
2023/05/28 10:18:09;;;;;;;0.03;0.03;;;21.50;97.30;;;;;;5001321;28;20406;-65
2023/05/28 10:20:34;;;;;;;0.20;0.20;;;21.70;97.70;;;;;;5003561;28;20031;-65
2023/05/28 10:23:01;;;;;;;0.00;0.00;;;21.70;97.90;;;;;;5002257;28;20441;-65
2023/05/28 10:25:27;;;;;;;0.22;0.22;;;21.80;97.90;;;;;;5010603;28;20042;-65
2023/05/28 10:28:03;;;;;;;0.10;0.10;;;21.80;98.10;;;;;;5009337;28;20050;-65
2023/05/28 10:30:35;;;;;;;0.10;0.10;;;21.80;98.80;;;;;;5003654;28;20038;-64
2023/05/28 10:33:17;;;;;;;0.17;0.17;;;21.90;98.30;;;;;;4999447;28;20068;-65
2023/05/28 10:35:54;;;;;;;0.25;0.25;;;22.00;98.40;;;;;;5001328;28;20041;-65
2023/05/28 10:38:20;;;;;;;0.00;0.00;;;22.00;98.20;;;;;;4995618;28;20045;-65
2023/05/28 10:40:46;;;;;;;2.35;1.27;;;21.90;99.60;;;;;;5001723;28;20388;-64
2023/05/28 10:43:45;;;;;;;0.05;0.05;;;21.90;98.30;;;;;;5010079;28;20469;-65
2023/05/28 10:46:36;;;;;;;0.00;0.00;;;22.00;99.00;;;;;;5007347;28;20125;-65
2023/05/28 10:49:10;;;;;;;0.10;0.10;;;21.80;98.30;;;;;;5001056;28;20486;-65
2023/05/28 10:51:56;;;;;;;0.93;0.93;;;21.90;98.90;;;;;;5010217;28;20052;-65
2023/05/28 10:54:24;;;;;;;0.20;0.20;;;21.90;99.10;;;;;;5015644;28;20808;-65
2023/05/28 10:57:11;;;;;;;0.52;0.30;;;22.10;99.70;;;;;;4997526;28;20041;-65
2023/05/28 10:59:46;;;;;;;0.55;0.55;;;22.30;99.90;;;;;;5008386;28;20129;-64
2023/05/28 11:02:21;;;;;;;0.05;0.05;;;22.20;99.60;;;;;;4989754;28;20073;-66
2023/05/28 11:04:55;;;;;;;0.08;0.08;;;22.10;99.50;;;;;;5002015;28;20056;-66
2023/05/28 11:07:30;;;;;;;1.27;1.08;;;22.30;99.90;;;;;;5002066;28;20038;-65
2023/05/28 11:09:57;;;;;;;6.35;3.00;;;22.10;99.90;;;;;;4998359;28;20049;-65
2023/05/28 11:12:25;;;;;;;0.22;0.20;;;22.10;99.30;;;;;;5007143;28;20061;-66
2023/05/28 11:14:51;;;;;;;1.45;0.70;;;22.30;99.90;;;;;;4999148;28;20081;-66
2023/05/28 11:17:17;;;;;;;0.20;0.20;;;22.30;99.90;;;;;;5004887;28;20065;-66
2023/05/28 11:19:48;;;;;;;0.03;0.03;;;22.50;99.90;;;;;;5003064;28;20039;-66
2023/05/28 11:22:15;;;;;;;0.10;0.10;;;22.30;99.90;;;;;;4996685;28;20125;-66
2023/05/28 11:24:58;;;;;;;0.00;0.00;;;22.50;99.90;;;;;;4998224;28;20073;-66
2023/05/28 11:27:27;;;;;;;0.28;0.28;;;22.60;99.90;;;;;;4993714;28;20050;-66
2023/05/28 11:29:58;;;;;;;0.52;0.52;;;22.70;99.90;;;;;;4996988;28;20081;-65
2023/05/28 11:32:25;;;;;;;1.65;0.63;;;22.70;99.90;;;;;;4995712;28;20129;-65
2023/05/28 11:34:55;;;;;;;0.00;0.00;;;22.90;99.90;;;;;;5003795;28;20048;-66
2023/05/28 11:37:29;;;;;;;0.10;0.10;;;23.10;99.60;;;;;;5005706;28;20046;-65
2023/05/28 11:39:56;;;;;;;14.50;0.95;;;23.00;99.70;;;;;;5006883;28;20529;-66
2023/05/28 11:42:23;;;;;;;0.00;0.00;;;23.10;99.90;;;;;;4998495;28;20038;-66
2023/05/28 11:44:53;;;;;;;0.20;0.20;;;23.10;98.90;;;;;;5003710;28;20041;-66
2023/05/28 11:47:20;;;;;;;0.00;0.00;;;23.20;99.90;;;;;;5001610;28;20604;-65
2023/05/28 11:49:47;;;;;;;0.00;0.00;;;23.20;98.80;;;;;;4999118;28;20050;-65
2023/05/28 11:52:13;;;;;;;0.03;0.03;;;23.20;99.00;;;;;;4999904;28;20524;-66
2023/05/28 11:54:43;;;;;;;0.00;0.00;;;23.20;97.70;;;;;;5006005;28;20393;-66
2023/05/28 11:57:09;;;;;;;0.00;0.00;;;23.20;98.30;;;;;;4994064;28;20042;-66
2023/05/28 11:59:35;;;;;;;0.22;0.22;;;23.20;98.30;;;;;;4994089;28;20038;-65
2023/05/28 12:02:18;;;;;;;0.00;0.00;;;23.30;99.00;;;;;;5009140;28;20501;-66
2023/05/28 12:04:57;;;;;;;0.00;0.00;;;23.30;98.30;;;;;;5009658;28;20088;-65
2023/05/28 12:07:31;;;;;;;0.30;0.30;;;23.60;98.70;;;;;;5001412;28;20378;-66
2023/05/28 12:10:08;;;;;;;5.93;0.25;;;23.80;99.00;;;;;;5004679;28;20080;-66
2023/05/28 12:12:45;;;;;;;0.00;0.00;;;23.90;98.40;;;;;;5006974;28;20053;-66
2023/05/28 12:15:11;;;;;;;0.22;0.22;;;23.80;99.50;;;;;;5007117;28;20089;-66
2023/05/28 12:17:43;;;;;;;0.00;0.00;;;23.80;98.80;;;;;;5021696;28;20116;-65
2023/05/28 12:20:12;;;;;;;0.32;0.25;;;23.90;98.70;;;;;;5043226;28;20474;-66
2023/05/28 12:22:41;;;;;;;0.00;0.00;;;23.90;98.10;;;;;;5011168;28;20049;-66
2023/05/28 12:25:07;;;;;;;0.85;0.52;;;23.90;98.50;;;;;;5006036;28;20050;-66
2023/05/28 12:27:33;;;;;;;11.48;0.75;;;24.00;98.20;;;;;;5004002;28;20196;-66
2023/05/28 12:29:59;;;;;;;0.20;0.20;;;24.20;98.30;;;;;;5011223;28;20045;-66
2023/05/28 12:32:25;;;;;;;0.20;0.20;;;24.20;97.70;;;;;;5001038;28;20398;-66
2023/05/28 12:34:56;;;;;;;0.95;0.88;;;24.30;98.50;;;;;;5008914;28;20050;-66
2023/05/28 12:37:23;;;;;;;0.00;0.00;;;24.00;97.80;;;;;;5006344;28;20049;-66
2023/05/28 12:39:49;;;;;;;0.00;0.00;;;24.30;97.10;;;;;;5006598;28;20038;-66
2023/05/28 12:42:14;;;;;;;0.00;0.00;;;24.40;98.10;;;;;;5004999;28;20046;-66
2023/05/28 12:44:40;;;;;;;0.30;0.30;;;24.40;96.90;;;;;;5001718;28;20436;-66
2023/05/28 12:47:06;;;;;;;0.00;0.00;;;24.60;98.30;;;;;;5005569;28;20057;-67